createdAt,value
2022-08-12T00:01:15.996Z,98.00
2022-08-12T00:04:05.388Z,98.40
2022-08-12T00:06:53.315Z,98.40
2022-08-12T00:09:39.630Z,98.80
2022-08-12T00:12:25.892Z,98.70
2022-08-12T00:15:12.218Z,99.10
2022-08-12T00:17:58.722Z,99.40
2022-08-12T00:20:44.696Z,99.60
2022-08-12T00:23:31.878Z,99.60
2022-08-12T00:26:22.950Z,99.50
2022-08-12T00:29:13.304Z,99.40
2022-08-12T00:32:01.292Z,99.60
2022-08-12T00:34:51.777Z,99.60
2022-08-12T00:37:39.691Z,99.70
2022-08-12T00:40:29.329Z,99.80
2022-08-12T00:42:57.853Z,99.80
2022-08-12T00:45:25.754Z,99.80
2022-08-12T00:47:53.887Z,99.80
2022-08-12T00:50:22.775Z,99.80
2022-08-12T00:52:52.682Z,99.80
2022-08-12T00:55:21.438Z,99.80
2022-08-12T00:57:52.026Z,99.90
2022-08-12T01:00:25.031Z,99.90
2022-08-12T01:02:57.554Z,99.90
2022-08-12T01:05:44.764Z,99.90
2022-08-12T01:08:30.691Z,99.90
2022-08-12T01:11:17.232Z,99.90
2022-08-12T01:13:49.850Z,99.90
2022-08-12T01:16:24.214Z,99.90
2022-08-12T01:18:55.153Z,99.90
2022-08-12T01:21:45.459Z,99.90
2022-08-12T01:25:04.856Z,99.90
2022-08-12T01:27:34.630Z,99.90
2022-08-12T01:30:07.781Z,99.90
2022-08-12T01:32:38.608Z,99.90
2022-08-12T01:35:15.263Z,99.90
2022-08-12T01:37:57.354Z,99.90
2022-08-12T01:40:36.830Z,99.90
2022-08-12T01:43:10.863Z,99.90
2022-08-12T01:46:03.972Z,99.90
2022-08-12T01:49:09.709Z,99.90
2022-08-12T01:52:20.600Z,99.90
2022-08-12T01:54:38.659Z,99.90
2022-08-12T01:57:58.462Z,99.90
2022-08-12T02:00:54.989Z,99.90
2022-08-12T02:04:28.873Z,99.90
2022-08-12T02:08:08.441Z,99.90
2022-08-12T02:11:18.384Z,99.90
2022-08-12T02:14:31.761Z,99.90
2022-08-12T02:17:18.300Z,99.90
2022-08-12T02:20:13.840Z,99.90
2022-08-12T02:22:47.385Z,99.90
2022-08-12T02:25:22.650Z,99.90
2022-08-12T02:27:52.010Z,99.90
2022-08-12T02:30:22.613Z,99.90
2022-08-12T02:32:52.372Z,99.90
2022-08-12T02:35:25.471Z,99.90
2022-08-12T02:37:56.145Z,99.90
2022-08-12T02:40:25.850Z,99.90
2022-08-12T02:43:27.665Z,99.90
2022-08-12T02:46:04.938Z,99.90
2022-08-12T02:48:52.423Z,99.90
2022-08-12T02:51:24.046Z,99.90
2022-08-12T02:54:01.438Z,99.90
2022-08-12T02:56:34.065Z,99.90
2022-08-12T02:59:02.030Z,99.90
2022-08-12T03:01:34.903Z,99.90
2022-08-12T03:04:05.390Z,99.90
2022-08-12T03:06:40.079Z,99.90
2022-08-12T03:09:13.708Z,99.90
2022-08-12T03:11:54.604Z,99.90
2022-08-12T03:14:27.284Z,99.90
2022-08-12T03:17:08.411Z,99.90
2022-08-12T03:19:38.831Z,99.90
2022-08-12T03:22:27.029Z,99.90
2022-08-12T03:24:55.691Z,99.90
2022-08-12T03:27:25.211Z,99.90
2022-08-12T03:29:57.134Z,99.90
2022-08-12T03:32:36.062Z,99.90
2022-08-12T03:35:40.244Z,99.90
2022-08-12T03:38:09.620Z,99.90
2022-08-12T03:41:21.984Z,99.90
2022-08-12T03:44:17.801Z,99.90
2022-08-12T03:47:08.191Z,99.90
2022-08-12T03:49:55.045Z,99.90
2022-08-12T03:52:41.204Z,99.90
2022-08-12T03:55:27.232Z,99.90
2022-08-12T03:58:13.739Z,99.90
2022-08-12T04:00:41.194Z,99.90
2022-08-12T04:03:29.452Z,99.90
2022-08-12T04:05:57.046Z,99.90
2022-08-12T04:08:27.516Z,99.90
2022-08-12T04:11:14.080Z,99.90
2022-08-12T04:13:41.547Z,99.90
2022-08-12T04:16:10.395Z,99.90
2022-08-12T04:18:38.850Z,99.90
2022-08-12T04:21:10.719Z,99.90
2022-08-12T04:23:42.169Z,99.90
2022-08-12T04:26:11.330Z,99.90
2022-08-12T04:28:38.649Z,99.90
2022-08-12T04:31:06.459Z,99.90
2022-08-12T04:33:34.656Z,99.90
2022-08-12T04:36:02.116Z,99.90
2022-08-12T04:38:30.683Z,99.90
2022-08-12T04:40:58.229Z,99.90
2022-08-12T04:43:54.454Z,99.90
2022-08-12T04:46:13.284Z,99.90
2022-08-12T04:48:41.104Z,99.90
2022-08-12T04:51:08.859Z,99.90
2022-08-12T04:53:36.318Z,99.90
2022-08-12T04:56:04.510Z,99.90
2022-08-12T04:58:32.668Z,99.90
2022-08-12T05:01:01.247Z,99.90
2022-08-12T05:03:28.727Z,99.90
2022-08-12T05:06:20.825Z,99.90
2022-08-12T05:08:59.833Z,99.90
2022-08-12T05:11:27.920Z,99.90
2022-08-12T05:14:01.468Z,99.90
2022-08-12T05:16:32.702Z,99.90
2022-08-12T05:19:01.887Z,99.90
2022-08-12T05:21:30.051Z,99.90
2022-08-12T05:23:57.486Z,99.90
2022-08-12T05:26:25.167Z,99.90
2022-08-12T05:28:55.287Z,99.90
2022-08-12T05:31:40.357Z,99.90
2022-08-12T05:34:14.784Z,99.80
2022-08-12T05:36:45.009Z,99.30
2022-08-12T05:39:14.790Z,98.60
2022-08-12T05:41:42.290Z,98.10
2022-08-12T05:44:13.453Z,98.00
2022-08-12T05:46:41.317Z,97.20
2022-08-12T05:49:09.256Z,97.50
2022-08-12T05:51:41.749Z,97.10
2022-08-12T05:54:12.513Z,96.50
2022-08-12T05:56:41.618Z,96.40
2022-08-12T05:59:11.238Z,95.70
2022-08-12T06:02:08.853Z,95.50
2022-08-12T06:04:27.526Z,95.20
2022-08-12T06:06:55.011Z,94.70
2022-08-12T06:09:22.898Z,94.50
2022-08-12T06:12:04.371Z,94.60
2022-08-12T06:14:37.181Z,94.30
2022-08-12T06:17:09.661Z,94.00
2022-08-12T06:20:27.045Z,93.60
2022-08-12T06:22:30.218Z,93.70
2022-08-12T06:25:04.931Z,93.30
2022-08-12T06:27:41.804Z,93.10
2022-08-12T06:30:38.420Z,92.80
2022-08-12T06:33:59.684Z,92.00
2022-08-12T06:35:58.952Z,91.90
2022-08-12T06:38:28.052Z,91.60
2022-08-12T06:41:15.635Z,91.10
2022-08-12T06:44:05.753Z,90.60
2022-08-12T06:46:36.809Z,89.10
2022-08-12T06:49:04.477Z,86.80
2022-08-12T06:51:32.573Z,85.60
2022-08-12T06:54:01.382Z,83.70
2022-08-12T06:56:59.788Z,82.80
2022-08-12T06:59:16.566Z,81.10
2022-08-12T07:01:49.685Z,79.00
2022-08-12T07:07:09.445Z,75.70
2022-08-12T07:10:06.558Z,75.90
2022-08-12T07:12:30.706Z,74.00
2022-08-12T07:14:59.323Z,72.60
2022-08-12T07:17:31.726Z,72.70
2022-08-12T07:20:03.947Z,73.50
2022-08-12T07:22:33.079Z,74.10
2022-08-12T07:25:19.221Z,76.00
2022-08-12T07:27:47.894Z,76.40
2022-08-12T07:30:15.251Z,77.10
2022-08-12T07:32:44.471Z,77.60
2022-08-12T07:35:12.699Z,77.10
2022-08-12T07:37:42.372Z,77.30
2022-08-12T07:40:12.081Z,75.90
2022-08-12T07:42:41.170Z,75.80
2022-08-12T07:45:09.541Z,76.20
2022-08-12T07:47:38.349Z,75.80
2022-08-12T07:50:09.373Z,75.00
2022-08-12T07:52:39.336Z,74.70
2022-08-12T07:55:07.932Z,72.80
2022-08-12T07:57:57.894Z,71.40
2022-08-12T08:00:31.776Z,71.10
2022-08-12T08:02:59.198Z,68.90
2022-08-12T08:05:33.557Z,67.30
2022-08-12T08:08:02.476Z,65.70
2022-08-12T08:10:31.185Z,62.60
2022-08-12T08:13:04.347Z,60.00
2022-08-12T08:18:26.470Z,56.00
2022-08-12T08:20:54.906Z,55.90
2022-08-12T08:23:22.216Z,56.30
2022-08-12T08:25:57.093Z,55.50
2022-08-12T08:28:24.453Z,55.60
2022-08-12T08:30:53.919Z,55.60
2022-08-12T08:33:23.484Z,54.00
2022-08-12T08:36:23.582Z,53.20
2022-08-12T08:38:57.792Z,53.30
2022-08-12T08:42:13.923Z,54.00
2022-08-12T08:44:38.365Z,54.00
2022-08-12T08:47:07.304Z,53.30
2022-08-12T08:49:38.519Z,52.50
2022-08-12T08:52:07.570Z,51.90
2022-08-12T08:54:35.013Z,52.30
2022-08-12T08:57:04.484Z,51.50
2022-08-12T08:59:32.378Z,52.40
2022-08-12T09:02:00.254Z,52.40
2022-08-12T09:05:13.995Z,52.60
2022-08-12T09:07:51.086Z,52.20
2022-08-12T09:10:09.256Z,52.20
2022-08-12T09:13:09.268Z,52.10
2022-08-12T09:15:57.624Z,52.60
2022-08-12T09:18:33.069Z,52.10
2022-08-12T09:21:02.229Z,52.40
2022-08-12T09:24:00.174Z,52.60
2022-08-12T09:26:19.750Z,52.70
2022-08-12T09:32:03.165Z,52.20
2022-08-12T09:34:29.835Z,52.30
2022-08-12T09:37:18.620Z,53.80
2022-08-12T09:40:04.632Z,54.30
2022-08-12T09:43:15.195Z,54.20
2022-08-12T09:46:06.870Z,55.60
2022-08-12T09:48:35.202Z,55.20
2022-08-12T09:51:16.782Z,54.00
2022-08-12T09:54:05.617Z,53.20
2022-08-12T09:56:59.943Z,53.00
2022-08-12T10:00:13.044Z,51.50
2022-08-12T10:02:44.845Z,51.40
2022-08-12T10:05:13.064Z,51.60
2022-08-12T10:07:50.142Z,52.20
2022-08-12T10:10:24.252Z,53.40
2022-08-12T10:13:36.689Z,54.20
2022-08-12T10:16:08.451Z,52.50
2022-08-12T10:18:59.900Z,51.50
2022-08-12T10:21:37.693Z,51.80
2022-08-12T10:24:10.409Z,50.50
2022-08-12T10:26:59.210Z,51.20
2022-08-12T10:30:03.670Z,52.80
2022-08-12T10:32:43.698Z,53.90
2022-08-12T10:35:15.401Z,52.50
2022-08-12T10:38:35.574Z,50.80
2022-08-12T10:40:37.623Z,50.20
2022-08-12T10:43:24.001Z,48.80
2022-08-12T10:45:51.889Z,48.00
2022-08-12T10:48:26.945Z,48.30
2022-08-12T10:52:02.763Z,48.80
2022-08-12T10:54:00.475Z,49.30
2022-08-12T10:56:34.481Z,49.40
2022-08-12T10:59:05.547Z,49.60
2022-08-12T11:04:16.919Z,49.10
2022-08-12T11:04:39.640Z,49.20
2022-08-12T11:08:36.795Z,48.80
2022-08-12T11:10:02.174Z,48.10
2022-08-12T11:12:55.020Z,48.00
2022-08-12T11:15:33.121Z,48.10
2022-08-12T11:18:17.999Z,49.80
2022-08-12T11:20:48.081Z,50.60
2022-08-12T11:23:25.107Z,51.40
2022-08-12T11:26:06.758Z,49.60
2022-08-12T11:28:37.616Z,50.00
2022-08-12T11:31:11.924Z,51.50
2022-08-12T11:34:04.766Z,52.20
2022-08-12T11:36:30.855Z,52.40
2022-08-12T11:38:58.597Z,51.90
2022-08-12T11:41:33.676Z,52.20
2022-08-12T11:44:32.002Z,52.10
2022-08-12T11:46:53.274Z,51.60
2022-08-12T11:49:31.072Z,50.90
2022-08-12T11:52:01.853Z,50.60
2022-08-12T11:54:30.343Z,51.40
2022-08-12T11:57:00.528Z,49.60
2022-08-12T12:02:20.103Z,49.80
2022-08-12T12:04:52.486Z,49.90
2022-08-12T12:08:36.135Z,48.30
2022-08-12T12:10:14.276Z,47.80
2022-08-12T12:12:50.040Z,49.20
2022-08-12T12:15:25.329Z,48.90
2022-08-12T12:18:04.815Z,48.50
2022-08-12T12:20:34.244Z,49.30
2022-08-12T12:23:01.595Z,49.30
2022-08-12T12:25:59.362Z,50.20
2022-08-12T12:28:37.384Z,49.50
2022-08-12T12:31:04.423Z,49.30
2022-08-12T12:33:57.096Z,50.40
2022-08-12T12:36:23.144Z,51.40
2022-08-12T12:38:53.950Z,50.00
2022-08-12T12:41:21.409Z,48.20
2022-08-12T12:44:04.776Z,47.50
2022-08-12T12:46:34.564Z,47.10
2022-08-12T12:49:02.647Z,47.00
2022-08-12T12:51:49.276Z,47.90
2022-08-12T12:54:29.111Z,47.30
2022-08-12T12:56:56.603Z,47.10
2022-08-12T12:59:56.549Z,46.80
2022-08-12T13:02:12.616Z,46.30
2022-08-12T13:04:40.069Z,46.30
2022-08-12T13:07:07.980Z,46.60
2022-08-12T13:09:36.490Z,46.30
2022-08-12T13:12:08.907Z,46.50
2022-08-12T13:14:39.889Z,45.40
2022-08-12T13:17:14.651Z,44.30
2022-08-12T13:19:46.756Z,45.60
2022-08-12T13:22:19.369Z,46.60
2022-08-12T13:24:51.824Z,46.10
2022-08-12T13:27:20.759Z,45.90
2022-08-12T13:29:48.873Z,46.40
2022-08-12T13:32:28.296Z,46.10
2022-08-12T13:35:04.717Z,44.50
2022-08-12T13:37:54.926Z,44.60
2022-08-12T13:40:28.657Z,46.20
2022-08-12T13:42:58.085Z,45.70
2022-08-12T13:45:29.061Z,44.80
2022-08-12T13:48:00.082Z,44.80
2022-08-12T13:50:33.199Z,46.00
2022-08-12T13:53:23.155Z,46.70
2022-08-12T13:56:01.356Z,46.70
2022-08-12T13:58:34.946Z,44.40
2022-08-12T14:01:05.804Z,45.40
2022-08-12T14:03:51.505Z,46.60
2022-08-12T14:06:20.599Z,46.60
2022-08-12T14:08:51.402Z,47.40
2022-08-12T14:11:19.476Z,46.70
2022-08-12T14:14:05.232Z,46.00
2022-08-12T14:16:49.057Z,46.00
2022-08-12T14:19:22.344Z,44.80
2022-08-12T14:22:01.139Z,44.80
2022-08-12T14:24:40.650Z,44.60
2022-08-12T14:27:12.480Z,44.40
2022-08-12T14:30:04.926Z,45.20
2022-08-12T14:32:37.027Z,45.50
2022-08-12T14:35:09.373Z,44.40
2022-08-12T14:37:56.713Z,44.30
2022-08-12T14:40:29.539Z,44.80
2022-08-12T14:42:58.269Z,44.90
2022-08-12T14:45:45.560Z,44.10
2022-08-12T14:48:24.406Z,43.00
2022-08-12T14:51:03.104Z,42.80
2022-08-12T14:57:00.005Z,42.00
2022-08-12T14:59:57.199Z,42.00
2022-08-12T15:02:23.395Z,42.10
2022-08-12T15:04:59.012Z,42.40
2022-08-12T15:07:33.449Z,42.40
2022-08-12T15:10:13.571Z,43.30
2022-08-12T15:12:40.969Z,43.80
2022-08-12T15:15:10.474Z,43.00
2022-08-12T15:17:39.327Z,43.10
2022-08-12T15:20:28.353Z,42.90
2022-08-12T15:22:57.851Z,43.60
2022-08-12T15:25:29.748Z,43.80
2022-08-12T15:28:20.384Z,44.20
2022-08-12T15:30:52.251Z,42.70
2022-08-12T15:33:24.138Z,42.00
2022-08-12T15:35:53.716Z,41.40
2022-08-12T15:38:31.310Z,40.60
2022-08-12T15:41:00.077Z,40.40
2022-08-12T15:43:51.432Z,40.20
2022-08-12T15:46:21.324Z,40.20
2022-08-12T15:48:53.498Z,40.90
2022-08-12T15:51:59.040Z,40.20
2022-08-12T15:54:33.197Z,39.20
2022-08-12T15:57:05.875Z,39.50
2022-08-12T15:59:51.366Z,39.60
2022-08-12T16:02:29.742Z,40.00
2022-08-12T16:04:57.893Z,39.80
2022-08-12T16:07:32.698Z,38.90
2022-08-12T16:10:09.195Z,38.80
2022-08-12T16:12:43.220Z,39.00
2022-08-12T16:15:13.666Z,39.20
2022-08-12T16:18:18.895Z,39.30
2022-08-12T16:20:33.403Z,38.80
2022-08-12T16:23:26.100Z,39.40
2022-08-12T16:26:05.411Z,41.30
2022-08-12T16:28:38.247Z,42.70
2022-08-12T16:31:06.004Z,43.50
2022-08-12T16:33:56.366Z,43.70
2022-08-12T16:36:31.064Z,44.00
2022-08-12T16:39:01.652Z,44.00
2022-08-12T16:41:38.251Z,44.20
2022-08-12T16:44:09.050Z,43.70
2022-08-12T16:46:38.095Z,43.90
2022-08-12T16:49:13.473Z,44.50
2022-08-12T16:51:46.336Z,44.30
2022-08-12T16:54:16.746Z,44.30
2022-08-12T16:56:57.754Z,44.60
2022-08-12T16:59:31.048Z,44.90
2022-08-12T17:02:31.322Z,45.10
2022-08-12T17:04:59.842Z,44.80
2022-08-12T17:07:36.210Z,45.20
2022-08-12T17:10:18.624Z,45.70
2022-08-12T17:13:10.582Z,46.80
2022-08-12T17:15:56.960Z,47.10
2022-08-12T17:18:43.096Z,47.20
2022-08-12T17:21:19.615Z,47.30
2022-08-12T17:23:53.665Z,47.20
2022-08-12T17:26:28.414Z,46.50
2022-08-12T17:28:59.515Z,46.40
2022-08-12T17:31:53.135Z,46.60
2022-08-12T17:34:38.370Z,46.90
2022-08-12T17:37:06.548Z,47.30
2022-08-12T17:40:12.501Z,47.90
2022-08-12T17:42:32.875Z,48.00
2022-08-12T17:45:17.274Z,48.30
2022-08-12T17:48:04.654Z,48.70
2022-08-12T17:50:34.567Z,49.00
2022-08-12T17:53:03.197Z,49.20
2022-08-12T17:55:40.634Z,49.40
2022-08-12T17:58:14.010Z,49.60
2022-08-12T18:00:45.168Z,49.30
2022-08-12T18:04:04.324Z,49.30
2022-08-12T18:06:13.654Z,50.00
2022-08-12T18:08:54.471Z,49.90
2022-08-12T18:12:03.249Z,50.30
2022-08-12T18:14:32.608Z,50.60
2022-08-12T18:17:02.589Z,51.20
2022-08-12T18:20:03.606Z,51.70
2022-08-12T18:22:21.673Z,51.90
2022-08-12T18:24:50.722Z,52.90
2022-08-12T18:27:42.166Z,53.30
2022-08-12T18:30:16.283Z,53.80
2022-08-12T18:32:58.550Z,54.90
2022-08-12T18:35:47.655Z,56.10
2022-08-12T18:38:20.931Z,57.10
2022-08-12T18:41:10.100Z,56.80
2022-08-12T18:43:58.706Z,57.80
2022-08-12T18:46:55.288Z,57.70
2022-08-12T18:49:34.898Z,57.70
2022-08-12T18:52:08.066Z,57.90
2022-08-12T18:54:52.936Z,57.70
2022-08-12T18:58:00.459Z,57.80
2022-08-12T19:00:21.172Z,58.30
2022-08-12T19:02:53.080Z,58.80
2022-08-12T19:05:23.385Z,59.10
2022-08-12T19:08:11.372Z,59.50
2022-08-12T19:10:42.902Z,59.80
2022-08-12T19:13:37.817Z,60.20
2022-08-12T19:16:10.722Z,60.90
2022-08-12T19:18:45.140Z,61.20
2022-08-12T19:21:16.758Z,61.40
2022-08-12T19:24:08.210Z,62.50
2022-08-12T19:26:36.465Z,63.60
2022-08-12T19:29:05.271Z,64.00
2022-08-12T19:31:55.848Z,65.50
2022-08-12T19:38:04.336Z,66.10
2022-08-12T19:40:20.370Z,66.20
2022-08-12T19:43:19.410Z,67.30
2022-08-12T19:45:56.330Z,67.50
2022-08-12T19:48:30.347Z,67.50
2022-08-12T19:50:58.107Z,67.80
2022-08-12T19:53:27.417Z,67.60
2022-08-12T19:55:57.374Z,68.40
2022-08-12T19:58:26.839Z,68.10
2022-08-12T20:00:56.176Z,69.10
2022-08-12T20:03:39.525Z,69.10
2022-08-12T20:06:13.705Z,69.50
2022-08-12T20:08:47.904Z,69.60
2022-08-12T20:12:13.402Z,69.60
2022-08-12T20:14:18.451Z,70.40
2022-08-12T20:16:52.240Z,70.50
2022-08-12T20:19:52.413Z,72.70
2022-08-12T20:22:23.472Z,72.50
2022-08-12T20:24:54.916Z,73.00
2022-08-12T20:27:29.061Z,73.40
2022-08-12T20:30:13.696Z,73.90
2022-08-12T20:32:59.264Z,74.80
2022-08-12T20:36:05.939Z,74.90
2022-08-12T20:38:27.034Z,75.50
2022-08-12T20:40:55.856Z,76.10
2022-08-12T20:43:28.269Z,77.10
2022-08-12T20:45:59.646Z,78.20
2022-08-12T20:48:29.535Z,79.00
2022-08-12T20:51:04.305Z,79.90
2022-08-12T20:53:58.409Z,79.80
2022-08-12T20:56:34.754Z,80.80
2022-08-12T20:59:05.963Z,81.40
2022-08-12T21:01:46.877Z,81.50
2022-08-12T21:04:35.875Z,82.60
2022-08-12T21:07:09.767Z,82.70
2022-08-12T21:09:41.957Z,83.00
2022-08-12T21:12:27.327Z,83.60
2022-08-12T21:15:23.489Z,86.20
2022-08-12T21:18:11.299Z,87.00
2022-08-12T21:20:50.865Z,88.00
2022-08-12T21:23:21.237Z,89.80
2022-08-12T21:25:51.019Z,90.30
2022-08-12T21:28:20.822Z,91.10
2022-08-12T21:31:10.837Z,91.40
2022-08-12T21:33:58.770Z,92.20
2022-08-12T21:36:34.973Z,92.40
2022-08-12T21:39:19.159Z,93.20
2022-08-12T21:41:53.545Z,94.10
2022-08-12T21:44:24.686Z,94.60
2022-08-12T21:47:20.902Z,94.80
2022-08-12T21:50:03.867Z,94.90
2022-08-12T21:52:37.371Z,95.50
2022-08-12T21:55:19.761Z,96.00
2022-08-12T21:57:53.275Z,96.30
2022-08-12T22:00:32.473Z,96.40
2022-08-12T22:04:01.627Z,96.80
2022-08-12T22:06:30.723Z,97.40
2022-08-12T22:09:07.502Z,98.00
2022-08-12T22:11:42.052Z,98.40
2022-08-12T22:14:21.357Z,98.60
2022-08-12T22:16:51.140Z,98.90
2022-08-12T22:19:19.642Z,99.40
2022-08-12T22:21:53.078Z,99.70
2022-08-12T22:24:26.275Z,99.90
2022-08-12T22:27:28.187Z,99.90
2022-08-12T22:30:16.707Z,99.90
2022-08-12T22:32:50.397Z,99.90
2022-08-12T22:35:56.413Z,99.90
2022-08-12T22:38:25.289Z,99.90
2022-08-12T22:41:02.159Z,99.90
2022-08-12T22:43:59.634Z,99.90
2022-08-12T22:46:52.873Z,99.90
2022-08-12T22:49:36.999Z,99.90
2022-08-12T22:52:18.685Z,99.90
2022-08-12T22:55:02.871Z,99.90
2022-08-12T22:57:53.317Z,99.90
2022-08-12T23:00:23.562Z,99.90
2022-08-12T23:02:59.389Z,99.90
2022-08-12T23:05:36.939Z,99.90
2022-08-12T23:08:22.075Z,99.90
2022-08-12T23:10:50.381Z,99.90
2022-08-12T23:13:43.326Z,99.90
2022-08-12T23:16:28.015Z,99.90
2022-08-12T23:19:01.480Z,99.90
2022-08-12T23:22:04.438Z,99.90
2022-08-12T23:24:26.086Z,99.90
2022-08-12T23:27:13.042Z,99.90
2022-08-12T23:29:44.051Z,99.90
2022-08-12T23:32:54.111Z,99.90
2022-08-12T23:35:18.834Z,99.90
2022-08-12T23:37:53.866Z,99.90
2022-08-12T23:40:24.742Z,99.90
2022-08-12T23:42:54.913Z,99.90
2022-08-12T23:45:32.065Z,99.90
2022-08-12T23:48:02.003Z,99.90
2022-08-12T23:50:34.456Z,99.90
2022-08-12T23:53:06.683Z,99.90
2022-08-12T23:55:45.771Z,99.90
2022-08-12T23:58:21.772Z,99.90
